Aberdeen, Kentucky
Current Conditions -  °F | °C
As of 3:53 PM on Friday 24 Oct 2014 (Local Time) from KBWG Reporting Station
Clear Clear  
Wind Chill: 20°   Ceiling: Unl
Heat Index: 20°   Visibility: 10mi
Dew Point:   Wind: 5mph
Humidity: 42%   Direction: 260°W
Pressure: 30.06"   Gusts: NA
Location:  37.25°N, 86.68°W
Report Text: KBWG 242053Z AUTO 26004KT 10SM CLR 20/07 A3006 RMK AO2 SLP179 T02000067 56016
Loading
Personal Weather Stations






























Interactive Weather Map
Tropical Storm Tracking
New forecast layout! Learn more

10-Day Weather Forecast

Advertisements
Track Severe Weather on mobile